Time;durP1;ratioP1;P1;durP2;ratioP2;P2;SDS_P1;SDS_P2;PMS_P1;PMS_P2;Temp;Humidity;BMP_temperature;BMP_pressure;BME280_temperature;BME280_humidity;BME280_pressure;Samples;Min_cycle;Max_cycle;Signal;HPM_P1;HPM_P2
2022/09/03 00:00:23;;;;;;;;;;;;;;;18.17;46.63;101074.09;5033681;28;19917;-34
2022/09/03 00:03:01;;;;;;;;;;;;;;;18.15;46.94;101070.78;5033761;28;20361;-34
2022/09/03 00:05:53;;;;;;;;;;;;;;;18.12;47.43;101076.81;5033494;28;20422;-34
2022/09/03 00:08:27;;;;;;;;;;;;;;;18.06;48.06;101077.94;5031001;28;20011;-35
2022/09/03 00:10:55;;;;;;;;;;;;;;;18.01;47.68;101075.22;5033808;28;19912;-34
2022/09/03 00:13:29;;;;;;;;;;;;;;;17.96;47.64;101075.22;5034140;28;20261;-34
2022/09/03 00:15:55;;;;;;;;;;;;;;;17.94;48.24;101071.91;5033783;28;20027;-34
2022/09/03 00:18:23;;;;;;;;;;;;;;;17.92;48.40;101072.19;5033469;28;20012;-34
2022/09/03 00:20:57;;;;;;;;;;;;;;;17.88;48.37;101071.09;5033877;28;19939;-34
2022/09/03 00:23:25;;;;;;;;;;;;;;;17.85;48.52;101068.09;5033642;28;20292;-34
2022/09/03 00:25:50;;;;;;;;;;;;;;;17.83;48.30;101070.28;5032985;28;19932;-34
2022/09/03 00:28:23;;;;;;;;;;;;;;;17.82;48.13;101071.38;5033337;28;19920;-34
2022/09/03 00:30:52;;;;;;;;;;;;;;;17.82;48.55;101068.66;5033128;28;19913;-34
2022/09/03 00:33:21;;;;;;;;;;;;;;;17.82;47.73;101071.38;5033023;28;19913;-34
2022/09/03 00:35:53;;;;;;;;;;;;;;;17.79;48.66;101069.19;5032915;28;20335;-34
2022/09/03 00:38:20;;;;;;;;;;;;;;;17.73;48.67;101071.91;5114562;28;20312;-34
2022/09/03 00:41:01;;;;;;;;;;;;;;;17.72;48.24;101075.72;5115681;28;19919;-35
2022/09/03 00:43:58;;;;;;;;;;;;;;;17.74;48.37;101078.22;5116448;28;20018;-34
2022/09/03 00:46:34;;;;;;;;;;;;;;;17.66;49.43;101074.06;5033124;28;19944;-34
2022/09/03 00:49:11;;;;;;;;;;;;;;;17.64;48.67;101069.97;5033350;28;19920;-34
2022/09/03 00:51:55;;;;;;;;;;;;;;;17.62;49.43;101067.53;5032592;28;19932;-34
2022/09/03 00:54:24;;;;;;;;;;;;;;;17.59;49.21;101073.53;5033110;28;19913;-34
2022/09/03 00:56:52;;;;;;;;;;;;;;;17.59;48.84;101073.53;5032709;28;19963;-34
2022/09/03 00:59:23;;;;;;;;;;;;;;;17.58;48.48;101071.88;5032402;28;19916;-34
2022/09/03 01:01:58;;;;;;;;;;;;;;;17.60;48.50;101072.41;5033136;28;19982;-34
2022/09/03 01:04:41;;;;;;;;;;;;;;;17.61;49.32;101085.00;5032594;28;19936;-34
2022/09/03 01:07:25;;;;;;;;;;;;;;;17.55;49.07;101068.88;5032475;28;20361;-34
2022/09/03 01:09:53;;;;;;;;;;;;;;;17.46;49.34;101074.84;5032317;28;19913;-34
2022/09/03 01:12:39;;;;;;;;;;;;;;;17.40;49.57;101073.22;5032906;28;20389;-34
2022/09/03 01:15:05;;;;;;;;;;;;;;;17.34;50.26;101070.75;5032078;28;19913;-34
2022/09/03 01:17:33;;;;;;;;;;;;;;;17.34;49.89;101070.75;5032400;28;19913;-34
2022/09/03 01:20:21;;;;;;;;;;;;;;;17.35;49.88;101072.38;5032093;28;19924;-35
2022/09/03 01:22:58;;;;;;;;;;;;;;;17.30;49.11;101070.47;5101024;28;20279;-34
2022/09/03 01:25:37;;;;;;;;;;;;;;;17.25;50.44;101073.19;5114450;28;19912;-34
2022/09/03 01:28:15;;;;;;;;;;;;;;;17.21;50.21;101070.16;5113880;28;19912;-34
2022/09/03 01:30:46;;;;;;;;;;;;;;;17.20;50.55;101079.47;5114394;28;19918;-34
2022/09/03 01:33:30;;;;;;;;;;;;;;;17.17;49.52;101074.53;5115494;28;19912;-34
2022/09/03 01:36:15;;;;;;;;;;;;;;;17.16;50.52;101075.63;5115397;28;20006;-34
2022/09/03 01:38:41;;;;;;;;;;;;;;;17.16;50.93;101081.09;5113962;28;19911;-34
2022/09/03 01:44:11;;;;;;;;;;;;;;;17.10;50.80;101084.09;5114464;28;19914;-34
2022/09/03 01:46:40;;;;;;;;;;;;;;;17.08;49.68;101075.31;5114866;28;19913;-34
2022/09/03 01:49:05;;;;;;;;;;;;;;;17.02;50.92;101070.94;5114283;28;19912;-34
2022/09/03 01:51:31;;;;;;;;;;;;;;;16.99;50.79;101070.41;5114388;28;19968;-34
2022/09/03 01:54:05;;;;;;;;;;;;;;;16.99;50.94;101075.03;5114672;28;19912;-34
2022/09/03 01:56:42;;;;;;;;;;;;;;;16.97;51.04;101071.75;5114254;28;20351;-34
2022/09/03 01:59:20;;;;;;;;;;;;;;;16.97;50.65;101074.47;5114002;28;19955;-34
2022/09/03 02:01:51;;;;;;;;;;;;;;;16.91;51.11;101072.81;5114542;28;19916;-34
2022/09/03 02:04:22;;;;;;;;;;;;;;;16.87;51.20;101072.53;5114449;28;19911;-34
2022/09/03 02:06:48;;;;;;;;;;;;;;;16.88;51.00;101067.88;5114350;28;20014;-34
2022/09/03 02:09:14;;;;;;;;;;;;;;;16.83;51.30;101070.59;5114120;28;19918;-34
2022/09/03 02:11:40;;;;;;;;;;;;;;;16.79;51.64;101072.22;5115170;28;19916;-34
2022/09/03 02:14:05;;;;;;;;;;;;;;;16.76;52.37;101075.50;5114514;28;19915;-34
2022/09/03 02:16:32;;;;;;;;;;;;;;;16.70;52.14;101067.25;5114525;28;20354;-34
2022/09/03 02:19:01;;;;;;;;;;;;;;;16.67;52.07;101072.41;5114013;28;19916;-35
2022/09/03 02:21:31;;;;;;;;;;;;;;;16.67;52.44;101069.69;5113963;28;20001;-34
2022/09/03 02:23:56;;;;;;;;;;;;;;;16.64;52.18;101062.84;5114033;28;20007;-34
2022/09/03 02:26:22;;;;;;;;;;;;;;;16.65;51.98;101066.41;5114845;28;20006;-34
2022/09/03 02:28:49;;;;;;;;;;;;;;;16.67;51.98;101066.94;5112608;28;19912;-34
2022/09/03 02:31:14;;;;;;;;;;;;;;;16.70;52.19;101067.25;5113988;28;19918;-34
2022/09/03 02:33:41;;;;;;;;;;;;;;;16.69;51.63;101076.53;5114123;28;19912;-34
2022/09/03 02:36:08;;;;;;;;;;;;;;;16.67;51.65;101070.50;5113890;28;19911;-34
2022/09/03 02:38:33;;;;;;;;;;;;;;;16.66;51.76;101063.41;5113669;28;19919;-34
2022/09/03 02:40:58;;;;;;;;;;;;;;;16.62;52.42;101070.47;5113800;28;19915;-34
2022/09/03 02:43:37;;;;;;;;;;;;;;;16.60;51.38;101061.75;5113698;28;19911;-34
2022/09/03 02:46:03;;;;;;;;;;;;;;;16.62;51.68;101067.75;5114229;28;19955;-34
2022/09/03 02:48:29;;;;;;;;;;;;;;;16.56;52.03;101068.00;5113966;28;20006;-34
2022/09/03 02:50:54;;;;;;;;;;;;;;;16.51;51.90;101074.25;5113667;28;20016;-33
2022/09/03 02:53:19;;;;;;;;;;;;;;;16.48;52.12;101069.31;5113614;28;19927;-34
2022/09/03 02:55:45;;;;;;;;;;;;;;;16.44;52.86;101069.00;5113176;28;19911;-34
2022/09/03 02:58:10;;;;;;;;;;;;;;;16.42;52.50;101067.66;5114089;28;19965;-33
2022/09/03 03:00:36;;;;;;;;;;;;;;;16.40;52.47;101061.63;5113541;28;19916;-34
2022/09/03 03:03:04;;;;;;;;;;;;;;;16.35;53.03;101069.81;5113549;28;19915;-43
2022/09/03 03:05:45;;;;;;;;;;;;;;;16.31;53.04;101063.22;5113455;28;20017;-34
2022/09/03 03:08:11;;;;;;;;;;;;;;;16.30;53.03;101070.59;5114042;28;20010;-34
2022/09/03 03:10:37;;;;;;;;;;;;;;;16.29;53.18;101055.28;5113705;28;19955;-35
2022/09/03 03:13:02;;;;;;;;;;;;;;;16.26;53.32;101061.28;5113540;28;20002;-34
2022/09/03 03:15:27;;;;;;;;;;;;;;;16.25;52.91;101066.97;5113178;28;20291;-34
2022/09/03 03:17:56;;;;;;;;;;;;;;;16.23;53.52;101064.53;5113964;28;19964;-34
2022/09/03 03:20:21;;;;;;;;;;;;;;;16.21;53.08;101063.97;5113943;28;19937;-34
2022/09/03 03:22:46;;;;;;;;;;;;;;;16.20;53.18;101063.16;5113429;28;19916;-34
2022/09/03 03:25:12;;;;;;;;;;;;;;;16.20;53.15;101063.16;5113044;28;19922;-34
2022/09/03 03:27:40;;;;;;;;;;;;;;;16.19;53.36;101058.75;5113278;28;20372;-34
2022/09/03 03:30:08;;;;;;;;;;;;;;;16.16;53.61;101062.03;5113287;28;19912;-34
2022/09/03 03:32:34;;;;;;;;;;;;;;;16.12;53.90;101052.72;5113582;28;19936;-34
2022/09/03 03:34:59;;;;;;;;;;;;;;;16.06;53.92;101061.97;5113311;28;20018;-34
2022/09/03 03:37:24;;;;;;;;;;;;;;;16.06;53.93;101067.44;5113735;28;20003;-34
2022/09/03 03:39:49;;;;;;;;;;;;;;;16.05;53.74;101071.22;5112979;28;19977;-34
2022/09/03 03:42:14;;;;;;;;;;;;;;;16.08;52.84;101076.16;5116412;28;20406;-34
2022/09/03 03:44:42;;;;;;;;;;;;;;;16.12;52.88;101080.00;5116871;28;19912;-34
2022/09/03 03:47:07;;;;;;;;;;;;;;;16.13;53.17;101064.47;5116864;28;19919;-34
2022/09/03 03:49:33;;;;;;;;;;;;;;;16.05;54.32;101073.94;5116613;28;19911;-34
2022/09/03 03:51:58;;;;;;;;;;;;;;;16.03;54.24;101069.84;5117234;28;19922;-34
2022/09/03 03:54:24;;;;;;;;;;;;;;;16.00;53.64;101067.63;5116666;28;19911;-34
2022/09/03 03:56:49;;;;;;;;;;;;;;;15.99;54.03;101066.81;5117328;28;19915;-34
2022/09/03 03:59:14;;;;;;;;;;;;;;;15.95;54.45;101060.22;5116246;28;19919;-34
2022/09/03 04:01:39;;;;;;;;;;;;;;;15.90;54.24;101062.91;5117396;28;19927;-34
2022/09/03 04:04:04;;;;;;;;;;;;;;;15.86;54.91;101067.25;5116398;28;19912;-34
2022/09/03 04:06:29;;;;;;;;;;;;;;;15.84;54.70;101062.06;5116742;28;20279;-34
2022/09/03 04:08:55;;;;;;;;;;;;;;;15.80;54.62;101057.38;5116032;28;19919;-34
2022/09/03 04:11:21;;;;;;;;;;;;;;;15.81;55.13;101064.47;5116073;28;19912;-34
2022/09/03 04:13:47;;;;;;;;;;;;;;;15.76;54.95;101059.00;5116007;28;20423;-34
2022/09/03 04:16:17;;;;;;;;;;;;;;;15.77;55.18;101060.66;5115889;28;19992;-34
2022/09/03 04:18:43;;;;;;;;;;;;;;;15.76;55.25;101067.16;5116997;28;20006;-34
2022/09/03 04:21:09;;;;;;;;;;;;;;;15.74;55.10;101061.16;5116153;28;19959;-34
2022/09/03 04:23:39;;;;;;;;;;;;;;;15.72;55.28;101055.16;5116148;28;20351;-34
2022/09/03 04:26:05;;;;;;;;;;;;;;;15.76;54.74;101061.72;5115881;28;19918;-34
2022/09/03 04:28:30;;;;;;;;;;;;;;;15.77;54.80;101068.84;5116591;28;19915;-35
2022/09/03 04:31:00;;;;;;;;;;;;;;;15.80;55.39;101054.66;5115896;28;19959;-35
2022/09/03 04:33:25;;;;;;;;;;;;;;;15.83;54.19;101054.16;5115983;28;19919;-35
2022/09/03 04:35:50;;;;;;;;;;;;;;;15.83;55.29;101054.16;5116163;28;19919;-35
2022/09/03 04:38:16;;;;;;;;;;;;;;;15.83;54.22;101065.88;5116587;28;19912;-35
2022/09/03 04:40:41;;;;;;;;;;;;;;;15.85;54.51;101065.59;5116402;28;19911;-35
2022/09/03 04:43:06;;;;;;;;;;;;;;;15.82;54.86;101058.78;5115801;28;19912;-35
2022/09/03 04:45:31;;;;;;;;;;;;;;;15.80;55.12;101052.75;5115586;28;19912;-35
2022/09/03 04:47:58;;;;;;;;;;;;;;;15.79;55.24;101055.75;5115789;28;19912;-35
2022/09/03 04:50:23;;;;;;;;;;;;;;;15.68;55.89;101055.66;5115872;28;19952;-35
2022/09/03 04:52:48;;;;;;;;;;;;;;;15.65;55.64;101056.19;5115426;27;20014;-35
2022/09/03 04:55:14;;;;;;;;;;;;;;;15.65;55.14;101064.34;5115260;28;19918;-35
2022/09/03 04:57:41;;;;;;;;;;;;;;;15.66;54.96;101068.75;5115648;28;19916;-35
2022/09/03 05:00:09;;;;;;;;;;;;;;;15.67;55.86;101069.56;5115467;28;19919;-35
2022/09/03 05:02:35;;;;;;;;;;;;;;;15.67;55.42;101072.31;5115926;27;20240;-35
2022/09/03 05:05:00;;;;;;;;;;;;;;;15.64;54.38;101068.16;5115469;28;19918;-35
2022/09/03 05:07:28;;;;;;;;;;;;;;;15.63;55.18;101071.13;5116048;28;19919;-35
2022/09/03 05:09:53;;;;;;;;;;;;;;;15.58;56.49;101065.63;5115531;28;20269;-35
2022/09/03 05:12:20;;;;;;;;;;;;;;;15.51;55.95;101065.81;5116112;28;19916;-35
2022/09/03 05:14:45;;;;;;;;;;;;;;;15.50;56.12;101071.56;5115058;28;20351;-35
2022/09/03 05:17:10;;;;;;;;;;;;;;;15.51;55.61;101065.00;5114996;28;19984;-35
2022/09/03 05:19:35;;;;;;;;;;;;;;;15.53;55.86;101069.13;5114962;28;19915;-34
2022/09/03 05:22:00;;;;;;;;;;;;;;;15.53;55.97;101069.13;5115171;28;19912;-35
2022/09/03 05:24:26;;;;;;;;;;;;;;;15.53;57.17;101066.41;5114764;28;19918;-35
2022/09/03 05:26:51;;;;;;;;;;;;;;;15.54;56.97;101070.78;5114835;28;19912;-35
2022/09/03 05:29:18;;;;;;;;;;;;;;;15.57;56.42;101072.19;5115376;28;19921;-35
2022/09/03 05:31:43;;;;;;;;;;;;;;;15.57;56.94;101064.00;5114799;28;19912;-34
2022/09/03 05:34:09;;;;;;;;;;;;;;;15.58;57.16;101066.47;5115281;28;19919;-34
2022/09/03 05:36:35;;;;;;;;;;;;;;;15.62;56.62;101056.69;5114930;28;19919;-34
2022/09/03 05:39:00;;;;;;;;;;;;;;;15.66;57.15;101068.75;5114917;28;19926;-35
2022/09/03 05:41:26;;;;;;;;;;;;;;;15.67;56.44;101069.56;5114667;28;19916;-34
2022/09/03 05:43:57;;;;;;;;;;;;;;;15.65;57.12;101066.25;5115191;28;19911;-34
2022/09/03 05:46:30;;;;;;;;;;;;;;;15.62;57.33;101066.78;5115234;28;19968;-35
2022/09/03 05:48:55;;;;;;;;;;;;;;;15.63;57.32;101063.81;5115038;28;20312;-35
2022/09/03 05:51:21;;;;;;;;;;;;;;;15.60;57.13;101064.28;5114414;28;19955;-34
2022/09/03 05:53:47;;;;;;;;;;;;;;;15.63;57.38;101061.09;5114733;28;19955;-34
2022/09/03 05:56:16;;;;;;;;;;;;;;;15.68;56.74;101065.75;5114771;28;19912;-34
2022/09/03 05:58:43;;;;;;;;;;;;;;;15.76;57.21;101070.72;5114330;28;19912;-34
2022/09/03 06:01:16;;;;;;;;;;;;;;;15.83;55.85;101071.34;5115014;28;20252;-34
2022/09/03 06:03:42;;;;;;;;;;;;;;;15.90;56.61;101068.38;5114556;28;19977;-34
2022/09/03 06:06:08;;;;;;;;;;;;;;;15.97;56.80;101060.81;5113262;28;20355;-34
2022/09/03 06:08:33;;;;;;;;;;;;;;;16.03;56.80;101064.41;5114776;28;19955;-34
2022/09/03 06:10:59;;;;;;;;;;;;;;;16.05;56.50;101065.75;5113852;28;20402;-34
2022/09/03 06:13:24;;;;;;;;;;;;;;;16.06;56.60;101061.97;5114252;28;20375;-34
2022/09/03 06:15:54;;;;;;;;;;;;;;;16.13;56.34;101061.72;5114055;28;20376;-34
2022/09/03 06:18:20;;;;;;;;;;;;;;;16.18;56.15;101061.75;5114320;28;20263;-34
2022/09/03 06:20:52;;;;;;;;;;;;;;;16.27;56.62;101062.09;5113968;28;19911;-34
2022/09/03 06:23:17;;;;;;;;;;;;;;;16.35;56.14;101069.81;5114270;28;19919;-34
2022/09/03 06:25:42;;;;;;;;;;;;;;;16.46;55.51;101068.75;5113793;28;19911;-34
2022/09/03 06:28:08;;;;;;;;;;;;;;;16.58;55.32;101068.53;5114218;28;19919;-34
2022/09/03 06:30:34;;;;;;;;;;;;;;;16.65;55.52;101072.69;5113866;28;19919;-34
2022/09/03 06:32:59;;;;;;;;;;;;;;;16.66;55.15;101071.59;5114432;28;19915;-34
2022/09/03 06:35:24;;;;;;;;;;;;;;;16.71;55.54;101073.53;5113872;28;19934;-34
2022/09/03 06:37:50;;;;;;;;;;;;;;;16.77;55.02;101074.41;5113581;28;20286;-35
2022/09/03 06:40:21;;;;;;;;;;;;;;;16.83;55.50;101071.41;5113784;28;19957;-35
2022/09/03 06:42:54;;;;;;;;;;;;;;;16.89;54.76;101075.00;5114517;28;19952;-35
2022/09/03 06:45:19;;;;;;;;;;;;;;;16.93;55.14;101076.09;5113706;28;19915;-35
2022/09/03 06:47:44;;;;;;;;;;;;;;;16.93;54.94;101062.44;5113953;28;19920;-34
2022/09/03 06:50:10;;;;;;;;;;;;;;;16.95;54.87;101072.00;5113384;28;19912;-35
2022/09/03 06:52:35;;;;;;;;;;;;;;;17.02;55.08;101073.66;5114194;28;20003;-35
2022/09/03 06:55:00;;;;;;;;;;;;;;;17.08;54.80;101069.84;5113785;28;19953;-35
2022/09/03 06:57:25;;;;;;;;;;;;;;;17.14;54.71;101066.06;5114214;28;20008;-35
2022/09/03 06:59:52;;;;;;;;;;;;;;;17.25;54.82;101074.00;5113825;28;19998;-34
2022/09/03 07:02:18;;;;;;;;;;;;;;;17.39;54.80;101073.50;5114469;28;19916;-34
2022/09/03 07:04:43;;;;;;;;;;;;;;;17.54;54.13;101065.31;5113809;28;20002;-34
2022/09/03 07:07:12;;;;;;;;;;;;;;;17.73;54.23;101063.72;5113885;28;19922;-35
2022/09/03 07:09:37;;;;;;;;;;;;;;;17.92;53.32;101057.69;5112324;28;20335;-35
2022/09/03 07:12:03;;;;;;;;;;;;;;;18.12;53.23;101062.31;5114076;28;19957;-35
2022/09/03 07:14:28;;;;;;;;;;;;;;;18.25;52.16;101065.31;5111408;28;20087;-35
2022/09/03 07:16:53;;;;;;;;;;;;;;;18.35;51.66;101072.69;5116065;28;19963;-35
2022/09/03 07:19:19;;;;;;;;;;;;;;;18.41;51.69;101063.34;5117274;28;19919;-35
2022/09/03 07:21:44;;;;;;;;;;;;;;;18.45;51.81;101069.09;5117067;28;19911;-35
2022/09/03 07:24:10;;;;;;;;;;;;;;;18.53;51.82;101072.06;5117925;28;19918;-34
2022/09/03 07:26:36;;;;;;;;;;;;;;;18.63;51.62;101065.75;5118055;28;19911;-35
2022/09/03 07:29:02;;;;;;;;;;;;;;;18.72;51.39;101055.88;5117171;28;19911;-34
2022/09/03 07:31:32;;;;;;;;;;;;;;;18.78;50.53;101059.41;5117921;28;19956;-35
2022/09/03 07:33:58;;;;;;;;;;;;;;;18.82;50.72;101062.41;5117553;27;19911;-35
2022/09/03 07:36:25;;;;;;;;;;;;;;;18.85;50.55;101068.16;5117051;28;19911;-34
2022/09/03 07:38:50;;;;;;;;;;;;;;;18.87;50.05;101065.94;5116898;28;19918;-34
2022/09/03 07:41:16;;;;;;;;;;;;;;;18.91;50.40;101066.22;5116717;27;20278;-35
2022/09/03 07:43:43;;;;;;;;;;;;;;;18.95;50.27;101070.03;5116967;28;20383;-34
2022/09/03 07:46:11;;;;;;;;;;;;;;;19.00;49.90;101076.31;5116620;28;19918;-34
2022/09/03 07:48:37;;;;;;;;;;;;;;;19.02;49.45;101076.03;5117192;28;19959;-34
2022/09/03 07:51:02;;;;;;;;;;;;;;;19.00;49.26;101075.50;5116863;28;19918;-35
2022/09/03 07:53:27;;;;;;;;;;;;;;;19.04;50.17;101076.56;5117514;28;19912;-35
2022/09/03 07:55:53;;;;;;;;;;;;;;;19.06;49.03;101066.13;5117080;28;19956;-34
2022/09/03 07:58:21;;;;;;;;;;;;;;;19.11;49.85;101079.00;5116164;28;20041;-35
2022/09/03 08:00:47;;;;;;;;;;;;;;;19.13;50.00;101074.88;5116720;28;19915;-35
2022/09/03 08:03:12;;;;;;;;;;;;;;;19.19;49.81;101076.50;5116509;28;19918;-35
2022/09/03 08:05:37;;;;;;;;;;;;;;;19.24;49.34;101078.38;5116824;28;20282;-34
2022/09/03 08:08:03;;;;;;;;;;;;;;;19.32;50.08;101077.75;5116700;28;19918;-34
2022/09/03 08:10:29;;;;;;;;;;;;;;;19.41;48.75;101076.06;5116963;28;19915;-34
2022/09/03 08:12:55;;;;;;;;;;;;;;;19.46;48.99;101072.47;5116192;28;19911;-35
2022/09/03 08:15:21;;;;;;;;;;;;;;;19.53;48.98;101073.81;5116650;28;20379;-35
2022/09/03 08:17:46;;;;;;;;;;;;;;;19.52;48.69;101087.78;5116058;28;20315;-35
2022/09/03 08:20:11;;;;;;;;;;;;;;;19.52;49.10;101079.56;5115951;28;20446;-35
2022/09/03 08:22:36;;;;;;;;;;;;;;;19.54;48.58;101082.84;5116272;28;19916;-35
2022/09/03 08:25:02;;;;;;;;;;;;;;;19.65;48.95;101084.44;5115799;28;19935;-34
2022/09/03 08:27:27;;;;;;;;;;;;;;;19.79;48.85;101082.69;5115176;28;19912;-35
2022/09/03 08:29:53;;;;;;;;;;;;;;;19.96;48.89;101089.66;5116019;28;20002;-34
2022/09/03 08:32:18;;;;;;;;;;;;;;;20.12;48.81;101091.19;5115588;28;19915;-34
2022/09/03 08:34:43;;;;;;;;;;;;;;;20.23;48.20;101091.91;5115616;28;19912;-34
2022/09/03 08:37:09;;;;;;;;;;;;;;;20.34;47.42;101093.44;5115954;28;20343;-34
2022/09/03 08:39:34;;;;;;;;;;;;;;;20.39;47.33;101092.56;5115806;27;19911;-34
2022/09/03 08:42:11;;;;;;;;;;;;;;;20.39;47.19;101100.78;5116647;28;19958;-34
2022/09/03 08:44:57;;;;;;;;;;;;;;;20.43;47.58;101096.38;5115397;28;19912;-34
2022/09/03 08:47:22;;;;;;;;;;;;;;;20.46;47.13;101098.53;5115516;28;20287;-34
2022/09/03 08:49:47;;;;;;;;;;;;;;;20.57;47.89;101094.59;5115456;28;19916;-34
2022/09/03 08:52:33;;;;;;;;;;;;;;;20.67;46.82;101102.72;5116168;28;19911;-34
2022/09/03 08:55:10;;;;;;;;;;;;;;;20.81;46.91;101091.84;5115891;28;20277;-34
2022/09/03 08:57:39;;;;;;;;;;;;;;;20.95;46.76;101094.69;5115518;28;20006;-35
2022/09/03 09:00:05;;;;;;;;;;;;;;;21.08;46.74;101096.72;5115713;28;19980;-35
2022/09/03 09:02:38;;;;;;;;;;;;;;;21.16;46.64;101092.50;5116128;28;19919;-34
2022/09/03 09:05:22;;;;;;;;;;;;;;;21.26;46.85;101092.34;5114480;28;20256;-35
2022/09/03 09:07:57;;;;;;;;;;;;;;;21.39;45.38;101088.09;5115809;28;19915;-34
2022/09/03 09:10:38;;;;;;;;;;;;;;;21.45;45.31;101100.63;5115238;28;19934;-35
2022/09/03 09:13:03;;;;;;;;;;;;;;;21.45;45.91;101095.13;5115442;28;20011;-34
2022/09/03 09:15:39;;;;;;;;;;;;;;;21.45;45.35;101093.19;5114863;28;20426;-34
2022/09/03 09:18:12;;;;;;;;;;;;;;;21.50;45.70;101086.81;5115069;28;19912;-34
2022/09/03 09:20:41;;;;;;;;;;;;;;;21.65;46.21;101077.50;5115794;28;19959;-35
2022/09/03 09:23:10;;;;;;;;;;;;;;;21.77;45.63;101089.69;5115538;28;19978;-34
2022/09/03 09:25:44;;;;;;;;;;;;;;;21.90;45.72;101090.03;5113309;28;20037;-35
2022/09/03 09:28:19;;;;;;;;;;;;;;;22.06;45.44;101088.66;5114441;28;19915;-34
2022/09/03 09:30:46;;;;;;;;;;;;;;;22.17;44.47;101078.31;5115308;28;20288;-34
2022/09/03 09:33:12;;;;;;;;;;;;;;;22.21;44.69;101082.91;5115011;27;19911;-34
2022/09/03 09:35:41;;;;;;;;;;;;;;;22.31;44.18;101076.41;5114777;28;19943;-35
2022/09/03 09:38:06;;;;;;;;;;;;;;;22.40;43.80;101073.72;5115011;28;20328;-35
2022/09/03 09:40:33;;;;;;;;;;;;;;;22.45;43.26;101076.38;5113549;28;19912;-35
2022/09/03 09:43:15;;;;;;;;;;;;;;;22.46;43.85;101076.09;5114703;28;19957;-35
2022/09/03 09:45:41;;;;;;;;;;;;;;;22.59;42.64;101068.94;5113569;28;20336;-35
2022/09/03 09:48:09;;;;;;;;;;;;;;;22.71;43.24;101072.00;5114637;28;19979;-34
2022/09/03 09:50:35;;;;;;;;;;;;;;;22.87;43.29;101069.75;5114726;28;19916;-34
2022/09/03 09:53:13;;;;;;;;;;;;;;;22.99;42.43;101072.84;5115410;28;20331;-35
2022/09/03 09:55:47;;;;;;;;;;;;;;;23.01;40.79;101078.03;5114400;28;19912;-35
2022/09/03 09:58:13;;;;;;;;;;;;;;;23.02;40.69;101080.47;5115051;28;19935;-34
2022/09/03 10:00:38;;;;;;;;;;;;;;;23.13;40.87;101078.31;5114765;28;19916;-35
2022/09/03 10:03:08;;;;;;;;;;;;;;;23.18;41.43;101074.63;5114987;28;19998;-34
2022/09/03 10:05:35;;;;;;;;;;;;;;;23.41;41.48;101081.81;5114455;28;20049;-34
2022/09/03 10:08:03;;;;;;;;;;;;;;;23.52;40.29;101076.88;5114464;28;19912;-34
2022/09/03 10:10:34;;;;;;;;;;;;;;;23.64;40.91;101079.94;5112428;28;19911;-35
2022/09/03 10:13:00;;;;;;;;;;;;;;;23.76;40.32;101077.41;5114590;28;19923;-35
2022/09/03 10:15:37;;;;;;;;;;;;;;;23.92;40.88;101071.53;5113968;28;19916;-35
2022/09/03 10:18:06;;;;;;;;;;;;;;;24.03;39.83;101081.97;5114580;28;19995;-35
2022/09/03 10:20:57;;;;;;;;;;;;;;;23.99;38.49;101067.16;5114035;28;19918;-35
2022/09/03 10:23:24;;;;;;;;;;;;;;;23.82;38.79;101069.84;5031507;28;20016;-35
2022/09/03 10:25:55;;;;;;;;;;;;;;;23.84;39.38;101064.81;5031795;28;20317;-35
2022/09/03 10:28:23;;;;;;;;;;;;;;;23.85;38.35;101060.91;5031359;28;20368;-35
2022/09/03 10:31:10;;;;;;;;;;;;;;;23.94;39.08;101069.25;5031451;28;20007;-35
2022/09/03 10:33:56;;;;;;;;;;;;;;;24.00;38.98;101062.47;4972724;28;19921;-35
2022/09/03 10:36:28;;;;;;;;;;;;;;;24.05;39.24;101059.56;4962158;28;19914;-35
2022/09/03 10:39:03;;;;;;;;;;;;;;;24.22;39.57;101062.44;4972722;28;20010;-35
2022/09/03 10:41:31;;;;;;;;;;;;;;;24.46;39.61;101069.56;4972496;28;19976;-33
2022/09/03 10:44:10;;;;;;;;;;;;;;;24.62;38.96;101062.44;4972253;28;20001;-35
2022/09/03 10:46:54;;;;;;;;;;;;;;;24.80;38.78;101066.09;4972800;28;19968;-34
2022/09/03 10:49:34;;;;;;;;;;;;;;;24.82;37.63;101059.09;4972525;28;19977;-34
2022/09/03 10:52:08;;;;;;;;;;;;;;;24.95;38.36;101056.53;4974750;28;20274;-34
2022/09/03 10:54:51;;;;;;;;;;;;;;;25.09;38.12;101060.00;4976307;28;20492;-35
2022/09/03 10:57:17;;;;;;;;;;;;;;;25.24;37.35;101056.75;4976567;28;20001;-35
2022/09/03 10:59:52;;;;;;;;;;;;;;;25.22;36.58;101059.00;5005991;28;20352;-35
2022/09/03 11:02:40;;;;;;;;;;;;;;;25.10;37.53;101062.44;5074934;28;19912;-34
2022/09/03 11:05:17;;;;;;;;;;;;;;;25.16;36.97;101063.09;5015084;28;19921;-35
2022/09/03 11:07:46;;;;;;;;;;;;;;;25.16;36.88;101055.59;5015210;28;19913;-34
2022/09/03 11:10:17;;;;;;;;;;;;;;;25.18;37.15;101052.50;5027203;28;20007;-35
2022/09/03 11:12:49;;;;;;;;;;;;;;;25.22;37.18;101050.72;5055340;28;20003;-35
2022/09/03 11:15:14;;;;;;;;;;;;;;;24.99;36.64;101058.31;5054805;28;19913;-35
2022/09/03 11:17:46;;;;;;;;;;;;;;;25.12;37.14;101056.56;5055293;28;20004;-35
2022/09/03 11:20:19;;;;;;;;;;;;;;;25.34;37.81;101047.31;5054361;28;19916;-34
2022/09/03 11:22:45;;;;;;;;;;;;;;;25.57;37.93;101054.31;5055123;28;19948;-35
2022/09/03 11:25:12;;;;;;;;;;;;;;;25.69;36.70;101056.41;5054899;28;20007;-35
2022/09/03 11:27:40;;;;;;;;;;;;;;;25.68;36.52;101041.75;5054512;28;19913;-35
2022/09/03 11:30:08;;;;;;;;;;;;;;;25.72;36.93;101044.69;5054318;28;19920;-35
2022/09/03 11:32:45;;;;;;;;;;;;;;;25.84;37.26;101047.59;5054183;28;19944;-35
2022/09/03 11:35:24;;;;;;;;;;;;;;;25.97;35.74;101039.44;5054230;28;19913;-35
2022/09/03 11:38:01;;;;;;;;;;;;;;;26.02;35.82;101045.63;5054958;28;19917;-35
2022/09/03 11:40:33;;;;;;;;;;;;;;;26.23;36.40;101042.13;5054189;28;19913;-35
2022/09/03 11:43:13;;;;;;;;;;;;;;;26.32;35.40;101032.63;5104236;28;19916;-34
2022/09/03 11:45:39;;;;;;;;;;;;;;;26.41;36.09;101032.59;5117418;28;19911;-34
2022/09/03 11:48:36;;;;;;;;;;;;;;;26.41;35.42;101029.81;5116748;28;20425;-35
2022/09/03 11:51:02;;;;;;;;;;;;;;;26.54;35.68;101034.34;5033798;28;20000;-35
2022/09/03 11:53:33;;;;;;;;;;;;;;;26.56;34.70;101031.25;5034092;28;19995;-34
2022/09/03 11:56:01;;;;;;;;;;;;;;;26.52;34.70;101033.06;5033967;28;19913;-35
2022/09/03 11:58:28;;;;;;;;;;;;;;;26.50;35.08;101036.16;5034063;28;19913;-35
2022/09/03 12:00:54;;;;;;;;;;;;;;;26.55;35.33;101033.22;5033726;28;19921;-35
2022/09/03 12:03:26;;;;;;;;;;;;;;;26.67;35.42;101038.03;5034458;28;19967;-35
2022/09/03 12:06:10;;;;;;;;;;;;;;;26.83;35.75;101030.75;5033507;28;19975;-35
2022/09/03 12:08:44;;;;;;;;;;;;;;;27.04;35.60;101038.28;5033525;28;19913;-35
2022/09/03 12:11:18;;;;;;;;;;;;;;;26.97;34.35;101036.03;5033831;28;19920;-34
2022/09/03 12:14:03;;;;;;;;;;;;;;;26.91;34.37;101043.75;5033812;28;19952;-35
2022/09/03 12:16:33;;;;;;;;;;;;;;;26.98;34.51;101034.06;5033373;28;20365;-35
2022/09/03 12:19:01;;;;;;;;;;;;;;;27.01;34.07;101041.72;5033414;28;20000;-34
2022/09/03 12:21:27;;;;;;;;;;;;;;;27.11;35.03;101031.06;5034089;28;20313;-34
2022/09/03 12:23:53;;;;;;;;;;;;;;;27.11;34.02;101039.41;5033339;28;19915;-34
2022/09/03 12:26:23;;;;;;;;;;;;;;;27.05;34.41;101037.13;5064402;28;19911;-34
2022/09/03 12:28:54;;;;;;;;;;;;;;;27.21;34.96;101038.97;5115848;28;19969;-34
2022/09/03 12:31:22;;;;;;;;;;;;;;;27.35;34.91;101038.72;5116237;28;20007;-35
2022/09/03 12:33:49;;;;;;;;;;;;;;;27.49;34.69;101038.44;5116209;28;19919;-35
2022/09/03 12:36:15;;;;;;;;;;;;;;;27.37;33.44;101021.69;5115875;28;20476;-35
2022/09/03 12:38:40;;;;;;;;;;;;;;;27.43;34.03;101026.72;5116011;28;19955;-34
2022/09/03 12:41:18;;;;;;;;;;;;;;;27.54;34.80;101035.44;5115930;28;19998;-35
2022/09/03 12:43:50;;;;;;;;;;;;;;;27.63;33.04;101029.81;5116135;28;20283;-35
2022/09/03 12:46:15;;;;;;;;;;;;;;;27.63;34.14;101022.28;5115484;28;20264;-35
2022/09/03 12:48:46;;;;;;;;;;;;;;;27.62;33.37;101030.94;5115819;28;19911;-35